sensor_id;sensor_type;location;lat;lon;timestamp;P1;durP1;ratioP1;P2;durP2;ratioP2
12171;SDS011;6149;52.418;13.668;2023-07-20T00:01:36;5.97;;;4.87;;
12171;SDS011;6149;52.418;13.668;2023-07-20T00:04:04;6.07;;;5.27;;
12171;SDS011;6149;52.418;13.668;2023-07-20T00:06:31;9.60;;;4.97;;
12171;SDS011;6149;52.418;13.668;2023-07-20T00:08:57;5.37;;;4.63;;
12171;SDS011;6149;52.418;13.668;2023-07-20T00:11:25;6.57;;;5.23;;
12171;SDS011;6149;52.418;13.668;2023-07-20T00:13:53;6.07;;;5.20;;
12171;SDS011;6149;52.418;13.668;2023-07-20T00:16:19;6.50;;;5.57;;
12171;SDS011;6149;52.418;13.668;2023-07-20T00:18:46;6.13;;;5.30;;
12171;SDS011;6149;52.418;13.668;2023-07-20T00:21:14;5.70;;;5.20;;
12171;SDS011;6149;52.418;13.668;2023-07-20T00:23:40;5.77;;;5.23;;
12171;SDS011;6149;52.418;13.668;2023-07-20T00:26:07;6.97;;;5.33;;
12171;SDS011;6149;52.418;13.668;2023-07-20T00:28:33;7.77;;;5.50;;
12171;SDS011;6149;52.418;13.668;2023-07-20T00:31:00;6.07;;;5.53;;
12171;SDS011;6149;52.418;13.668;2023-07-20T00:33:27;6.13;;;5.03;;
12171;SDS011;6149;52.418;13.668;2023-07-20T00:35:54;7.73;;;5.70;;
12171;SDS011;6149;52.418;13.668;2023-07-20T00:38:22;6.27;;;5.67;;
12171;SDS011;6149;52.418;13.668;2023-07-20T00:40:49;6.60;;;5.73;;
12171;SDS011;6149;52.418;13.668;2023-07-20T00:43:15;6.57;;;5.97;;
12171;SDS011;6149;52.418;13.668;2023-07-20T00:45:42;7.60;;;5.43;;
12171;SDS011;6149;52.418;13.668;2023-07-20T00:48:10;6.20;;;5.60;;
12171;SDS011;6149;52.418;13.668;2023-07-20T00:50:37;6.73;;;6.13;;
12171;SDS011;6149;52.418;13.668;2023-07-20T00:53:06;7.40;;;6.40;;
12171;SDS011;6149;52.418;13.668;2023-07-20T00:55:34;6.10;;;5.60;;
12171;SDS011;6149;52.418;13.668;2023-07-20T00:58:01;7.30;;;6.47;;
12171;SDS011;6149;52.418;13.668;2023-07-20T01:00:28;12.43;;;6.90;;
12171;SDS011;6149;52.418;13.668;2023-07-20T01:02:54;7.17;;;6.47;;
12171;SDS011;6149;52.418;13.668;2023-07-20T01:05:21;7.60;;;6.20;;
12171;SDS011;6149;52.418;13.668;2023-07-20T01:07:52;7.07;;;6.43;;
12171;SDS011;6149;52.418;13.668;2023-07-20T01:10:24;7.37;;;6.67;;
12171;SDS011;6149;52.418;13.668;2023-07-20T01:12:58;7.50;;;6.20;;
12171;SDS011;6149;52.418;13.668;2023-07-20T01:15:27;7.17;;;6.53;;
12171;SDS011;6149;52.418;13.668;2023-07-20T01:17:55;9.53;;;7.07;;
12171;SDS011;6149;52.418;13.668;2023-07-20T01:20:22;8.10;;;7.27;;
12171;SDS011;6149;52.418;13.668;2023-07-20T01:23:01;7.97;;;7.17;;
12171;SDS011;6149;52.418;13.668;2023-07-20T01:26:01;7.93;;;7.20;;
12171;SDS011;6149;52.418;13.668;2023-07-20T01:28:39;8.73;;;6.87;;
12171;SDS011;6149;52.418;13.668;2023-07-20T01:31:26;8.50;;;7.57;;
12171;SDS011;6149;52.418;13.668;2023-07-20T01:33:56;7.57;;;6.87;;
12171;SDS011;6149;52.418;13.668;2023-07-20T01:36:26;9.00;;;7.67;;
12171;SDS011;6149;52.418;13.668;2023-07-20T01:38:57;8.80;;;8.00;;
12171;SDS011;6149;52.418;13.668;2023-07-20T01:41:23;7.70;;;6.90;;
12171;SDS011;6149;52.418;13.668;2023-07-20T01:43:50;7.43;;;6.63;;
12171;SDS011;6149;52.418;13.668;2023-07-20T01:46:17;8.13;;;7.30;;
12171;SDS011;6149;52.418;13.668;2023-07-20T01:48:45;8.47;;;7.57;;
12171;SDS011;6149;52.418;13.668;2023-07-20T01:51:11;9.00;;;7.43;;
12171;SDS011;6149;52.418;13.668;2023-07-20T01:53:38;9.00;;;7.87;;
12171;SDS011;6149;52.418;13.668;2023-07-20T01:56:05;9.27;;;8.37;;
12171;SDS011;6149;52.418;13.668;2023-07-20T01:58:31;8.47;;;7.67;;
12171;SDS011;6149;52.418;13.668;2023-07-20T02:00:58;8.30;;;7.57;;
12171;SDS011;6149;52.418;13.668;2023-07-20T02:03:25;10.53;;;8.13;;
12171;SDS011;6149;52.418;13.668;2023-07-20T02:05:53;8.57;;;7.53;;
12171;SDS011;6149;52.418;13.668;2023-07-20T02:08:19;8.03;;;7.33;;
12171;SDS011;6149;52.418;13.668;2023-07-20T02:10:46;9.17;;;8.27;;
12171;SDS011;6149;52.418;13.668;2023-07-20T02:13:13;9.27;;;8.27;;
12171;SDS011;6149;52.418;13.668;2023-07-20T02:15:40;10.27;;;8.57;;
12171;SDS011;6149;52.418;13.668;2023-07-20T02:18:07;9.57;;;7.97;;
12171;SDS011;6149;52.418;13.668;2023-07-20T02:20:34;8.03;;;7.37;;
12171;SDS011;6149;52.418;13.668;2023-07-20T02:23:02;8.57;;;7.30;;
12171;SDS011;6149;52.418;13.668;2023-07-20T02:25:30;7.73;;;6.93;;
12171;SDS011;6149;52.418;13.668;2023-07-20T02:27:56;8.17;;;7.30;;
12171;SDS011;6149;52.418;13.668;2023-07-20T02:30:23;10.47;;;7.73;;
12171;SDS011;6149;52.418;13.668;2023-07-20T02:32:49;7.40;;;6.77;;
12171;SDS011;6149;52.418;13.668;2023-07-20T02:35:16;9.00;;;7.67;;
12171;SDS011;6149;52.418;13.668;2023-07-20T02:37:42;10.33;;;8.50;;
12171;SDS011;6149;52.418;13.668;2023-07-20T02:40:11;8.37;;;7.50;;
12171;SDS011;6149;52.418;13.668;2023-07-20T02:42:37;7.80;;;7.10;;
12171;SDS011;6149;52.418;13.668;2023-07-20T02:45:05;10.73;;;7.60;;
12171;SDS011;6149;52.418;13.668;2023-07-20T02:47:32;9.40;;;7.53;;
12171;SDS011;6149;52.418;13.668;2023-07-20T02:49:59;8.67;;;7.83;;
12171;SDS011;6149;52.418;13.668;2023-07-20T02:52:25;9.63;;;7.93;;
12171;SDS011;6149;52.418;13.668;2023-07-20T02:54:52;8.60;;;7.70;;
12171;SDS011;6149;52.418;13.668;2023-07-20T02:57:20;8.63;;;7.83;;
12171;SDS011;6149;52.418;13.668;2023-07-20T02:59:47;8.37;;;7.67;;
12171;SDS011;6149;52.418;13.668;2023-07-20T03:02:13;7.83;;;7.03;;
12171;SDS011;6149;52.418;13.668;2023-07-20T03:04:40;8.93;;;8.13;;
12171;SDS011;6149;52.418;13.668;2023-07-20T03:07:06;9.43;;;8.63;;
12171;SDS011;6149;52.418;13.668;2023-07-20T03:09:33;9.40;;;8.60;;
12171;SDS011;6149;52.418;13.668;2023-07-20T03:11:59;10.07;;;9.10;;
12171;SDS011;6149;52.418;13.668;2023-07-20T03:14:27;10.03;;;9.03;;
12171;SDS011;6149;52.418;13.668;2023-07-20T03:16:54;10.03;;;9.00;;
12171;SDS011;6149;52.418;13.668;2023-07-20T03:19:20;9.90;;;9.00;;
12171;SDS011;6149;52.418;13.668;2023-07-20T03:21:47;10.27;;;9.27;;
12171;SDS011;6149;52.418;13.668;2023-07-20T03:24:14;9.60;;;8.80;;
12171;SDS011;6149;52.418;13.668;2023-07-20T03:26:40;11.03;;;9.83;;
12171;SDS011;6149;52.418;13.668;2023-07-20T03:29:07;11.47;;;10.40;;
12171;SDS011;6149;52.418;13.668;2023-07-20T03:31:37;13.10;;;10.70;;
12171;SDS011;6149;52.418;13.668;2023-07-20T03:34:04;11.70;;;10.70;;
12171;SDS011;6149;52.418;13.668;2023-07-20T03:36:31;13.03;;;11.73;;
12171;SDS011;6149;52.418;13.668;2023-07-20T03:38:58;13.63;;;12.43;;
12171;SDS011;6149;52.418;13.668;2023-07-20T03:41:25;14.27;;;12.93;;
12171;SDS011;6149;52.418;13.668;2023-07-20T03:43:51;14.70;;;13.20;;
12171;SDS011;6149;52.418;13.668;2023-07-20T03:46:18;13.43;;;12.23;;
12171;SDS011;6149;52.418;13.668;2023-07-20T03:48:46;14.70;;;13.30;;
12171;SDS011;6149;52.418;13.668;2023-07-20T03:51:12;13.30;;;12.10;;
12171;SDS011;6149;52.418;13.668;2023-07-20T03:53:39;15.17;;;13.73;;
12171;SDS011;6149;52.418;13.668;2023-07-20T03:56:05;14.20;;;12.90;;
12171;SDS011;6149;52.418;13.668;2023-07-20T03:58:32;14.17;;;12.87;;
12171;SDS011;6149;52.418;13.668;2023-07-20T04:00:58;13.73;;;12.43;;
12171;SDS011;6149;52.418;13.668;2023-07-20T04:03:25;14.30;;;12.90;;
12171;SDS011;6149;52.418;13.668;2023-07-20T04:05:54;13.13;;;11.97;;
12171;SDS011;6149;52.418;13.668;2023-07-20T04:08:21;13.20;;;12.00;;
12171;SDS011;6149;52.418;13.668;2023-07-20T04:10:49;15.27;;;13.87;;
12171;SDS011;6149;52.418;13.668;2023-07-20T04:13:15;15.53;;;14.13;;
12171;SDS011;6149;52.418;13.668;2023-07-20T04:15:42;16.47;;;14.87;;
12171;SDS011;6149;52.418;13.668;2023-07-20T04:18:08;16.73;;;15.27;;
12171;SDS011;6149;52.418;13.668;2023-07-20T04:20:35;15.60;;;14.20;;
12171;SDS011;6149;52.418;13.668;2023-07-20T04:23:02;17.67;;;15.97;;
12171;SDS011;6149;52.418;13.668;2023-07-20T04:25:29;17.23;;;15.43;;
12171;SDS011;6149;52.418;13.668;2023-07-20T04:28:04;17.30;;;15.57;;
12171;SDS011;6149;52.418;13.668;2023-07-20T04:30:33;18.20;;;16.40;;
12171;SDS011;6149;52.418;13.668;2023-07-20T04:33:00;17.47;;;15.90;;
12171;SDS011;6149;52.418;13.668;2023-07-20T04:35:46;18.33;;;16.43;;
12171;SDS011;6149;52.418;13.668;2023-07-20T04:38:19;16.77;;;15.17;;
12171;SDS011;6149;52.418;13.668;2023-07-20T04:40:46;15.90;;;14.40;;
12171;SDS011;6149;52.418;13.668;2023-07-20T04:43:14;16.10;;;14.50;;
12171;SDS011;6149;52.418;13.668;2023-07-20T04:45:42;17.03;;;15.50;;
12171;SDS011;6149;52.418;13.668;2023-07-20T04:48:09;18.00;;;16.03;;
12171;SDS011;6149;52.418;13.668;2023-07-20T04:50:37;15.87;;;14.37;;
12171;SDS011;6149;52.418;13.668;2023-07-20T04:53:04;15.50;;;14.20;;
12171;SDS011;6149;52.418;13.668;2023-07-20T04:55:32;16.77;;;15.37;;
12171;SDS011;6149;52.418;13.668;2023-07-20T04:57:59;17.80;;;16.10;;
12171;SDS011;6149;52.418;13.668;2023-07-20T05:00:26;18.87;;;16.97;;
12171;SDS011;6149;52.418;13.668;2023-07-20T05:02:53;18.03;;;16.37;;
12171;SDS011;6149;52.418;13.668;2023-07-20T05:05:19;16.90;;;15.20;;
12171;SDS011;6149;52.418;13.668;2023-07-20T05:07:46;17.87;;;16.20;;
12171;SDS011;6149;52.418;13.668;2023-07-20T05:10:12;17.40;;;15.67;;
12171;SDS011;6149;52.418;13.668;2023-07-20T05:12:40;17.13;;;15.43;;
12171;SDS011;6149;52.418;13.668;2023-07-20T05:15:07;17.87;;;16.30;;
12171;SDS011;6149;52.418;13.668;2023-07-20T05:17:35;16.13;;;14.53;;
12171;SDS011;6149;52.418;13.668;2023-07-20T05:20:01;18.30;;;16.60;;
12171;SDS011;6149;52.418;13.668;2023-07-20T05:22:29;17.93;;;16.30;;
12171;SDS011;6149;52.418;13.668;2023-07-20T05:24:59;17.83;;;16.00;;
12171;SDS011;6149;52.418;13.668;2023-07-20T05:27:26;17.00;;;15.40;;
12171;SDS011;6149;52.418;13.668;2023-07-20T05:29:53;18.50;;;16.73;;
12171;SDS011;6149;52.418;13.668;2023-07-20T05:32:20;17.30;;;15.73;;
12171;SDS011;6149;52.418;13.668;2023-07-20T05:34:47;16.70;;;15.10;;
12171;SDS011;6149;52.418;13.668;2023-07-20T05:37:13;17.47;;;15.63;;
12171;SDS011;6149;52.418;13.668;2023-07-20T05:39:40;17.20;;;15.50;;
12171;SDS011;6149;52.418;13.668;2023-07-20T05:42:07;14.77;;;13.37;;
12171;SDS011;6149;52.418;13.668;2023-07-20T05:44:33;15.60;;;13.37;;
12171;SDS011;6149;52.418;13.668;2023-07-20T05:47:01;14.43;;;13.13;;
12171;SDS011;6149;52.418;13.668;2023-07-20T05:49:28;14.70;;;13.30;;
12171;SDS011;6149;52.418;13.668;2023-07-20T05:51:55;14.57;;;13.23;;
12171;SDS011;6149;52.418;13.668;2023-07-20T05:54:23;14.07;;;12.77;;
12171;SDS011;6149;52.418;13.668;2023-07-20T05:56:50;12.33;;;11.23;;
12171;SDS011;6149;52.418;13.668;2023-07-20T05:59:17;11.93;;;10.83;;
12171;SDS011;6149;52.418;13.668;2023-07-20T06:01:44;12.23;;;11.23;;
12171;SDS011;6149;52.418;13.668;2023-07-20T06:04:13;11.87;;;10.87;;
12171;SDS011;6149;52.418;13.668;2023-07-20T06:06:39;9.83;;;9.03;;
12171;SDS011;6149;52.418;13.668;2023-07-20T06:09:06;10.20;;;9.40;;
12171;SDS011;6149;52.418;13.668;2023-07-20T06:11:36;11.93;;;10.83;;
12171;SDS011;6149;52.418;13.668;2023-07-20T06:14:03;10.93;;;9.93;;
12171;SDS011;6149;52.418;13.668;2023-07-20T06:16:30;10.43;;;9.53;;
12171;SDS011;6149;52.418;13.668;2023-07-20T06:18:56;9.83;;;9.03;;
12171;SDS011;6149;52.418;13.668;2023-07-20T06:21:24;10.27;;;9.33;;
12171;SDS011;6149;52.418;13.668;2023-07-20T06:23:51;8.47;;;7.57;;
12171;SDS011;6149;52.418;13.668;2023-07-20T06:26:17;8.07;;;7.17;;
12171;SDS011;6149;52.418;13.668;2023-07-20T06:28:45;8.70;;;7.33;;
12171;SDS011;6149;52.418;13.668;2023-07-20T06:31:12;7.73;;;7.03;;
12171;SDS011;6149;52.418;13.668;2023-07-20T06:33:39;7.03;;;6.30;;
12171;SDS011;6149;52.418;13.668;2023-07-20T06:36:05;6.77;;;5.60;;
12171;SDS011;6149;52.418;13.668;2023-07-20T06:38:33;6.60;;;6.00;;
12171;SDS011;6149;52.418;13.668;2023-07-20T06:41:00;6.40;;;5.90;;
12171;SDS011;6149;52.418;13.668;2023-07-20T06:43:26;5.80;;;5.27;;
12171;SDS011;6149;52.418;13.668;2023-07-20T06:45:53;6.33;;;5.73;;
12171;SDS011;6149;52.418;13.668;2023-07-20T06:48:21;5.60;;;4.97;;
12171;SDS011;6149;52.418;13.668;2023-07-20T06:50:51;5.50;;;5.00;;
12171;SDS011;6149;52.418;13.668;2023-07-20T06:53:18;4.60;;;4.17;;
12171;SDS011;6149;52.418;13.668;2023-07-20T06:56:01;4.93;;;4.50;;
12171;SDS011;6149;52.418;13.668;2023-07-20T06:58:27;5.43;;;4.93;;
12171;SDS011;6149;52.418;13.668;2023-07-20T07:00:54;4.80;;;4.40;;
12171;SDS011;6149;52.418;13.668;2023-07-20T07:03:20;5.10;;;4.60;;
12171;SDS011;6149;52.418;13.668;2023-07-20T07:05:49;4.73;;;4.33;;
12171;SDS011;6149;52.418;13.668;2023-07-20T07:08:16;6.00;;;5.50;;
12171;SDS011;6149;52.418;13.668;2023-07-20T07:10:43;6.70;;;6.10;;
12171;SDS011;6149;52.418;13.668;2023-07-20T07:13:12;8.83;;;6.57;;
12171;SDS011;6149;52.418;13.668;2023-07-20T07:15:39;6.77;;;5.77;;
12171;SDS011;6149;52.418;13.668;2023-07-20T07:18:07;6.73;;;6.13;;
12171;SDS011;6149;52.418;13.668;2023-07-20T07:20:33;7.67;;;6.97;;
12171;SDS011;6149;52.418;13.668;2023-07-20T07:23:01;7.10;;;6.30;;
12171;SDS011;6149;52.418;13.668;2023-07-20T07:25:28;6.70;;;6.10;;
12171;SDS011;6149;52.418;13.668;2023-07-20T07:27:55;5.47;;;4.83;;
12171;SDS011;6149;52.418;13.668;2023-07-20T07:30:23;6.23;;;4.33;;
12171;SDS011;6149;52.418;13.668;2023-07-20T07:32:51;3.97;;;3.57;;
12171;SDS011;6149;52.418;13.668;2023-07-20T07:35:17;4.73;;;3.30;;
12171;SDS011;6149;52.418;13.668;2023-07-20T07:37:44;3.30;;;3.10;;
12171;SDS011;6149;52.418;13.668;2023-07-20T07:40:11;3.37;;;2.97;;
12171;SDS011;6149;52.418;13.668;2023-07-20T07:42:38;4.40;;;2.70;;
12171;SDS011;6149;52.418;13.668;2023-07-20T07:45:05;3.23;;;2.93;;
12171;SDS011;6149;52.418;13.668;2023-07-20T07:47:34;4.13;;;3.50;;
12171;SDS011;6149;52.418;13.668;2023-07-20T07:50:01;3.67;;;2.67;;
12171;SDS011;6149;52.418;13.668;2023-07-20T07:52:28;4.00;;;2.60;;
12171;SDS011;6149;52.418;13.668;2023-07-20T07:54:55;2.43;;;1.90;;
12171;SDS011;6149;52.418;13.668;2023-07-20T07:57:21;2.47;;;1.90;;
12171;SDS011;6149;52.418;13.668;2023-07-20T07:59:48;4.53;;;1.83;;
12171;SDS011;6149;52.418;13.668;2023-07-20T08:02:15;1.67;;;1.57;;
12171;SDS011;6149;52.418;13.668;2023-07-20T08:04:43;2.17;;;1.77;;
12171;SDS011;6149;52.418;13.668;2023-07-20T08:07:10;2.30;;;1.87;;
12171;SDS011;6149;52.418;13.668;2023-07-20T08:09:36;3.90;;;1.90;;
12171;SDS011;6149;52.418;13.668;2023-07-20T08:12:03;3.37;;;1.83;;
12171;SDS011;6149;52.418;13.668;2023-07-20T08:14:31;1.90;;;1.50;;
12171;SDS011;6149;52.418;13.668;2023-07-20T08:16:57;1.80;;;1.70;;
12171;SDS011;6149;52.418;13.668;2023-07-20T08:19:24;1.97;;;1.50;;
12171;SDS011;6149;52.418;13.668;2023-07-20T08:21:52;2.37;;;1.77;;
12171;SDS011;6149;52.418;13.668;2023-07-20T08:24:18;2.57;;;1.70;;
12171;SDS011;6149;52.418;13.668;2023-07-20T08:26:45;3.87;;;1.90;;
12171;SDS011;6149;52.418;13.668;2023-07-20T08:29:11;2.80;;;1.90;;
12171;SDS011;6149;52.418;13.668;2023-07-20T08:31:38;2.40;;;2.10;;
12171;SDS011;6149;52.418;13.668;2023-07-20T08:34:05;2.13;;;1.70;;
12171;SDS011;6149;52.418;13.668;2023-07-20T08:36:32;2.10;;;1.90;;
12171;SDS011;6149;52.418;13.668;2023-07-20T08:38:59;2.53;;;1.57;;
12171;SDS011;6149;52.418;13.668;2023-07-20T08:41:28;2.23;;;1.53;;
12171;SDS011;6149;52.418;13.668;2023-07-20T08:43:55;1.87;;;1.30;;
12171;SDS011;6149;52.418;13.668;2023-07-20T08:46:23;3.70;;;1.20;;
12171;SDS011;6149;52.418;13.668;2023-07-20T08:48:52;1.37;;;1.00;;
12171;SDS011;6149;52.418;13.668;2023-07-20T08:51:19;1.83;;;1.00;;
12171;SDS011;6149;52.418;13.668;2023-07-20T08:53:47;1.97;;;1.17;;
12171;SDS011;6149;52.418;13.668;2023-07-20T08:56:17;2.80;;;1.10;;
12171;SDS011;6149;52.418;13.668;2023-07-20T08:58:46;1.27;;;1.00;;
12171;SDS011;6149;52.418;13.668;2023-07-20T09:01:13;1.20;;;1.10;;
12171;SDS011;6149;52.418;13.668;2023-07-20T09:03:41;1.37;;;1.10;;
12171;SDS011;6149;52.418;13.668;2023-07-20T09:06:09;1.30;;;1.07;;
12171;SDS011;6149;52.418;13.668;2023-07-20T09:08:37;2.50;;;1.23;;
12171;SDS011;6149;52.418;13.668;2023-07-20T09:11:04;1.47;;;1.20;;
12171;SDS011;6149;52.418;13.668;2023-07-20T09:13:33;2.27;;;1.20;;
12171;SDS011;6149;52.418;13.668;2023-07-20T09:16:00;1.27;;;1.07;;
12171;SDS011;6149;52.418;13.668;2023-07-20T09:18:29;2.53;;;0.83;;
12171;SDS011;6149;52.418;13.668;2023-07-20T09:21:01;2.60;;;0.90;;
12171;SDS011;6149;52.418;13.668;2023-07-20T09:23:30;0.80;;;0.80;;
12171;SDS011;6149;52.418;13.668;2023-07-20T09:25:59;0.97;;;0.73;;
12171;SDS011;6149;52.418;13.668;2023-07-20T09:28:25;1.10;;;0.87;;
12171;SDS011;6149;52.418;13.668;2023-07-20T09:30:54;0.80;;;0.80;;
12171;SDS011;6149;52.418;13.668;2023-07-20T09:33:23;1.00;;;0.70;;
12171;SDS011;6149;52.418;13.668;2023-07-20T09:35:50;1.13;;;0.77;;
12171;SDS011;6149;52.418;13.668;2023-07-20T09:38:17;0.73;;;0.67;;
12171;SDS011;6149;52.418;13.668;2023-07-20T09:40:45;1.30;;;0.93;;
12171;SDS011;6149;52.418;13.668;2023-07-20T09:43:15;2.40;;;0.60;;
12171;SDS011;6149;52.418;13.668;2023-07-20T09:45:42;0.80;;;0.50;;
12171;SDS011;6149;52.418;13.668;2023-07-20T09:48:10;1.23;;;0.60;;
12171;SDS011;6149;52.418;13.668;2023-07-20T09:50:41;0.70;;;0.60;;
12171;SDS011;6149;52.418;13.668;2023-07-20T09:53:09;1.17;;;0.70;;
12171;SDS011;6149;52.418;13.668;2023-07-20T09:55:39;1.40;;;0.70;;
12171;SDS011;6149;52.418;13.668;2023-07-20T09:58:08;1.00;;;0.70;;
12171;SDS011;6149;52.418;13.668;2023-07-20T10:00:35;0.80;;;0.80;;
12171;SDS011;6149;52.418;13.668;2023-07-20T10:03:03;1.80;;;0.70;;
12171;SDS011;6149;52.418;13.668;2023-07-20T10:05:34;2.23;;;0.70;;
12171;SDS011;6149;52.418;13.668;2023-07-20T10:08:04;1.30;;;0.60;;
12171;SDS011;6149;52.418;13.668;2023-07-20T10:10:37;1.20;;;0.60;;
12171;SDS011;6149;52.418;13.668;2023-07-20T10:13:08;1.07;;;0.60;;
12171;SDS011;6149;52.418;13.668;2023-07-20T10:15:43;1.40;;;0.60;;
12171;SDS011;6149;52.418;13.668;2023-07-20T10:18:14;0.97;;;0.80;;
12171;SDS011;6149;52.418;13.668;2023-07-20T10:20:47;1.17;;;0.73;;
12171;SDS011;6149;52.418;13.668;2023-07-20T10:23:17;0.70;;;0.70;;
12171;SDS011;6149;52.418;13.668;2023-07-20T10:25:44;1.03;;;0.70;;
12171;SDS011;6149;52.418;13.668;2023-07-20T10:28:12;1.33;;;0.70;;
12171;SDS011;6149;52.418;13.668;2023-07-20T10:30:39;1.57;;;0.80;;
12171;SDS011;6149;52.418;13.668;2023-07-20T10:33:08;2.30;;;0.90;;
12171;SDS011;6149;52.418;13.668;2023-07-20T10:38:53;1.40;;;0.90;;
12171;SDS011;6149;52.418;13.668;2023-07-20T10:41:22;1.47;;;0.70;;
12171;SDS011;6149;52.418;13.668;2023-07-20T10:43:57;3.03;;;1.00;;
12171;SDS011;6149;52.418;13.668;2023-07-20T10:46:36;0.60;;;0.60;;
12171;SDS011;6149;52.418;13.668;2023-07-20T10:49:10;0.70;;;0.70;;
12171;SDS011;6149;52.418;13.668;2023-07-20T10:51:41;1.70;;;0.80;;
12171;SDS011;6149;52.418;13.668;2023-07-20T10:54:12;0.93;;;0.60;;
12171;SDS011;6149;52.418;13.668;2023-07-20T10:59:51;1.03;;;0.80;;
12171;SDS011;6149;52.418;13.668;2023-07-20T11:02:18;0.80;;;0.80;;
12171;SDS011;6149;52.418;13.668;2023-07-20T11:04:46;1.63;;;1.07;;
12171;SDS011;6149;52.418;13.668;2023-07-20T11:07:16;1.13;;;0.80;;
12171;SDS011;6149;52.418;13.668;2023-07-20T11:09:48;2.03;;;0.97;;
12171;SDS011;6149;52.418;13.668;2023-07-20T11:12:15;1.87;;;1.10;;
12171;SDS011;6149;52.418;13.668;2023-07-20T11:14:44;2.10;;;1.10;;
12171;SDS011;6149;52.418;13.668;2023-07-20T11:17:20;2.20;;;1.10;;
12171;SDS011;6149;52.418;13.668;2023-07-20T11:19:56;1.53;;;1.20;;
12171;SDS011;6149;52.418;13.668;2023-07-20T11:22:23;2.50;;;1.03;;
12171;SDS011;6149;52.418;13.668;2023-07-20T11:24:54;1.40;;;1.00;;
12171;SDS011;6149;52.418;13.668;2023-07-20T11:27:21;2.60;;;1.20;;
12171;SDS011;6149;52.418;13.668;2023-07-20T11:29:48;2.83;;;1.17;;
12171;SDS011;6149;52.418;13.668;2023-07-20T11:32:19;1.67;;;1.00;;
12171;SDS011;6149;52.418;13.668;2023-07-20T11:34:47;2.00;;;1.00;;
12171;SDS011;6149;52.418;13.668;2023-07-20T11:37:14;3.30;;;1.07;;
12171;SDS011;6149;52.418;13.668;2023-07-20T11:39:41;1.47;;;0.90;;
12171;SDS011;6149;52.418;13.668;2023-07-20T11:42:08;1.93;;;0.97;;
12171;SDS011;6149;52.418;13.668;2023-07-20T11:44:35;1.67;;;1.00;;
12171;SDS011;6149;52.418;13.668;2023-07-20T11:47:03;2.83;;;1.10;;
12171;SDS011;6149;52.418;13.668;2023-07-20T11:49:34;2.13;;;1.10;;
12171;SDS011;6149;52.418;13.668;2023-07-20T11:52:03;2.63;;;0.97;;
12171;SDS011;6149;52.418;13.668;2023-07-20T11:54:30;1.23;;;0.90;;
12171;SDS011;6149;52.418;13.668;2023-07-20T11:57:00;1.67;;;1.10;;
12171;SDS011;6149;52.418;13.668;2023-07-20T11:59:28;3.13;;;0.90;;
12171;SDS011;6149;52.418;13.668;2023-07-20T12:01:56;1.10;;;1.00;;
12171;SDS011;6149;52.418;13.668;2023-07-20T12:04:23;1.33;;;0.93;;
12171;SDS011;6149;52.418;13.668;2023-07-20T12:06:49;4.40;;;1.20;;
12171;SDS011;6149;52.418;13.668;2023-07-20T12:09:16;2.10;;;0.80;;
12171;SDS011;6149;52.418;13.668;2023-07-20T12:11:43;1.57;;;0.80;;
12171;SDS011;6149;52.418;13.668;2023-07-20T12:14:11;2.33;;;0.90;;
12171;SDS011;6149;52.418;13.668;2023-07-20T12:16:39;1.70;;;0.90;;
12171;SDS011;6149;52.418;13.668;2023-07-20T12:19:06;1.30;;;1.10;;
12171;SDS011;6149;52.418;13.668;2023-07-20T12:21:34;1.63;;;1.20;;
12171;SDS011;6149;52.418;13.668;2023-07-20T12:24:03;1.57;;;1.00;;
12171;SDS011;6149;52.418;13.668;2023-07-20T12:26:31;1.90;;;0.80;;
12171;SDS011;6149;52.418;13.668;2023-07-20T12:28:58;0.70;;;0.60;;
12171;SDS011;6149;52.418;13.668;2023-07-20T12:31:26;2.30;;;0.80;;
12171;SDS011;6149;52.418;13.668;2023-07-20T12:33:56;0.90;;;0.70;;
12171;SDS011;6149;52.418;13.668;2023-07-20T12:36:24;2.33;;;0.70;;
12171;SDS011;6149;52.418;13.668;2023-07-20T12:38:51;2.00;;;0.83;;
12171;SDS011;6149;52.418;13.668;2023-07-20T12:41:17;0.80;;;0.60;;
12171;SDS011;6149;52.418;13.668;2023-07-20T12:43:44;2.17;;;0.70;;
12171;SDS011;6149;52.418;13.668;2023-07-20T12:46:12;0.90;;;0.60;;
12171;SDS011;6149;52.418;13.668;2023-07-20T12:48:40;1.20;;;0.50;;
12171;SDS011;6149;52.418;13.668;2023-07-20T12:51:09;0.60;;;0.60;;
12171;SDS011;6149;52.418;13.668;2023-07-20T12:53:36;1.27;;;0.60;;
12171;SDS011;6149;52.418;13.668;2023-07-20T12:56:03;0.70;;;0.70;;
12171;SDS011;6149;52.418;13.668;2023-07-20T12:58:30;0.83;;;0.60;;
12171;SDS011;6149;52.418;13.668;2023-07-20T13:00:57;1.20;;;0.70;;
12171;SDS011;6149;52.418;13.668;2023-07-20T13:03:24;1.67;;;0.90;;
12171;SDS011;6149;52.418;13.668;2023-07-20T13:05:50;1.20;;;0.70;;
12171;SDS011;6149;52.418;13.668;2023-07-20T13:08:18;1.47;;;0.70;;
12171;SDS011;6149;52.418;13.668;2023-07-20T13:10:45;1.17;;;0.60;;
12171;SDS011;6149;52.418;13.668;2023-07-20T13:13:13;1.37;;;0.80;;
12171;SDS011;6149;52.418;13.668;2023-07-20T13:15:40;1.17;;;0.80;;
12171;SDS011;6149;52.418;13.668;2023-07-20T13:18:08;1.10;;;0.70;;
12171;SDS011;6149;52.418;13.668;2023-07-20T13:20:35;4.07;;;0.80;;
12171;SDS011;6149;52.418;13.668;2023-07-20T13:23:02;0.80;;;0.70;;
12171;SDS011;6149;52.418;13.668;2023-07-20T13:25:29;2.27;;;0.93;;
12171;SDS011;6149;52.418;13.668;2023-07-20T13:27:56;1.67;;;0.80;;
12171;SDS011;6149;52.418;13.668;2023-07-20T13:30:23;1.27;;;0.83;;
12171;SDS011;6149;52.418;13.668;2023-07-20T13:32:50;1.27;;;0.60;;
12171;SDS011;6149;52.418;13.668;2023-07-20T13:35:16;1.20;;;0.80;;
12171;SDS011;6149;52.418;13.668;2023-07-20T13:37:43;1.47;;;0.60;;
12171;SDS011;6149;52.418;13.668;2023-07-20T13:40:10;0.87;;;0.50;;
12171;SDS011;6149;52.418;13.668;2023-07-20T13:42:39;1.10;;;0.60;;
12171;SDS011;6149;52.418;13.668;2023-07-20T13:45:06;1.23;;;0.80;;
12171;SDS011;6149;52.418;13.668;2023-07-20T13:47:34;1.87;;;0.80;;
12171;SDS011;6149;52.418;13.668;2023-07-20T13:50:00;0.83;;;0.60;;
12171;SDS011;6149;52.418;13.668;2023-07-20T13:52:27;1.00;;;0.80;;
12171;SDS011;6149;52.418;13.668;2023-07-20T13:54:53;1.30;;;0.70;;
12171;SDS011;6149;52.418;13.668;2023-07-20T13:57:20;0.93;;;0.70;;
12171;SDS011;6149;52.418;13.668;2023-07-20T13:59:48;0.80;;;0.60;;
12171;SDS011;6149;52.418;13.668;2023-07-20T14:02:14;0.60;;;0.60;;
12171;SDS011;6149;52.418;13.668;2023-07-20T14:04:41;2.20;;;0.80;;
12171;SDS011;6149;52.418;13.668;2023-07-20T14:07:08;0.73;;;0.70;;
12171;SDS011;6149;52.418;13.668;2023-07-20T14:09:34;0.90;;;0.70;;
12171;SDS011;6149;52.418;13.668;2023-07-20T14:12:01;0.80;;;0.70;;
12171;SDS011;6149;52.418;13.668;2023-07-20T14:14:27;1.33;;;0.50;;
12171;SDS011;6149;52.418;13.668;2023-07-20T14:16:55;0.83;;;0.63;;
12171;SDS011;6149;52.418;13.668;2023-07-20T14:19:22;1.27;;;0.73;;
12171;SDS011;6149;52.418;13.668;2023-07-20T14:21:49;1.97;;;0.70;;
12171;SDS011;6149;52.418;13.668;2023-07-20T14:24:16;3.40;;;1.03;;
12171;SDS011;6149;52.418;13.668;2023-07-20T14:26:42;2.43;;;0.80;;
12171;SDS011;6149;52.418;13.668;2023-07-20T14:29:09;1.07;;;0.60;;
12171;SDS011;6149;52.418;13.668;2023-07-20T14:31:35;1.07;;;0.80;;
12171;SDS011;6149;52.418;13.668;2023-07-20T14:34:04;1.37;;;0.80;;
12171;SDS011;6149;52.418;13.668;2023-07-20T14:36:31;1.93;;;0.67;;
12171;SDS011;6149;52.418;13.668;2023-07-20T14:39:00;1.77;;;0.80;;
12171;SDS011;6149;52.418;13.668;2023-07-20T14:41:27;1.50;;;0.70;;
12171;SDS011;6149;52.418;13.668;2023-07-20T14:43:54;0.90;;;0.70;;
12171;SDS011;6149;52.418;13.668;2023-07-20T14:46:20;3.83;;;0.93;;
12171;SDS011;6149;52.418;13.668;2023-07-20T14:48:47;1.10;;;0.60;;
12171;SDS011;6149;52.418;13.668;2023-07-20T14:51:15;1.90;;;0.50;;
12171;SDS011;6149;52.418;13.668;2023-07-20T14:53:41;2.33;;;0.70;;